Aérodrome :
LOGIN :

S'inscrire | Disclaimer

   EN    FR    IT 

 










Légende :    VFR   VFR Marginal   IFR   IFR Intensif   IFR Très Intensif
Visi : 
Plafond : 
>= 8 km
>= 3000ft
5 à 8 km
1000 à 3000 ft
1500m à 5 km
500 à 1000 ft
800 à 1500m
200 à 500 ft
< 800m
< 200 ft
Symboles :   Orages  Brouillard  Fortes neiges  Fortes précipitations  Vent > 20 kt
SIGMETs :   Divers  Orages  Givrage  Turbulence  Onde Orograph.  Cendres Volcan.






- Altitude de l'aérodrome : 41 ft
- Code IATA : PFO


LCPH - Pafos Int.

DERNIER METAR :
  • 221600Z 34004KT 9999 FEW025 09/01 Q1022

METARs EXPIRÉS :
  • 221530Z 34003KT 9999 FEW025 11/02 Q1021
  • 221500Z 31007KT 9999 FEW025 13/02 Q1021
  • 221430Z 30011KT 9999 FEW025 14/02 Q1021
  • 221400Z 27012KT 9999 FEW025 15/04 Q1021
  • 221330Z 28013KT 9999 FEW025 15/03 Q1021

TAF TAF LCPH
Valide du 22 à 12h jusqu'au 23 à 12h UTC


221130Z 2212/2312 29010KT 9999 FEW025
BECMG 2216/2218 02008KT
BECMG 2307/2310 27018KT



MET'MAP, la Météo Aéronautique d'un coup d'oeil ! - Copyright ORBIFLY Décembre 2007 - Disclaimer

ORBIFLY MET'MAP TEAM :

Programmation & Développement : Alexandra Zaïnal
Sur une idée originale de : Baudouin d'Aumeries
Assistance à la programmation : Marc-Olivier Méhu
Soutien technique & logistique : Manuel Goepfert

Contact : metmap@orbifly.com




SOURCES & CREDITS :

   NOAA